Huntingdon, United Kingdom
Current Conditions -  °F | °C
As of 11:50 AM on Sunday 23 Nov 2014 (Local Time) from EGSC Reporting Station
Moderate Rain Moderate Rain  
Wind Chill: 40°   Ceiling: 1500
Heat Index: 45°   Visibility: 6mi
Dew Point: 45°   Wind: 8mph
Humidity: 100%   Direction: 330°NNW
Pressure: 30.03"   Gusts: NA
Location:  52.33°N, 0.19°W
Report Text: EGSC 231150Z 33007KT 240V040 9999 RA SCT004 BKN015 07/07 Q1017
Loading
Personal Weather Stations






























Interactive Weather Map New forecast layout! Learn more

10-Day Weather Forecast

Advertisements
Track Severe Weather on mobile